sensor_id;sensor_type;location;lat;lon;timestamp;P1;durP1;ratioP1;P2;durP2;ratioP2
11731;SDS011;5922;53.734;10.258;2023-07-30T00:00:27;10.63;;;9.17;;
11731;SDS011;5922;53.734;10.258;2023-07-30T00:03:08;9.60;;;8.60;;
11731;SDS011;5922;53.734;10.258;2023-07-30T00:05:37;11.03;;;9.73;;
11731;SDS011;5922;53.734;10.258;2023-07-30T00:08:04;10.20;;;9.10;;
11731;SDS011;5922;53.734;10.258;2023-07-30T00:10:31;11.80;;;8.87;;
11731;SDS011;5922;53.734;10.258;2023-07-30T00:12:59;10.87;;;8.90;;
11731;SDS011;5922;53.734;10.258;2023-07-30T00:15:26;12.10;;;9.53;;
11731;SDS011;5922;53.734;10.258;2023-07-30T00:17:53;10.33;;;9.33;;
11731;SDS011;5922;53.734;10.258;2023-07-30T00:20:26;10.67;;;9.57;;
11731;SDS011;5922;53.734;10.258;2023-07-30T00:22:55;10.40;;;9.03;;
11731;SDS011;5922;53.734;10.258;2023-07-30T00:25:22;14.60;;;9.27;;
11731;SDS011;5922;53.734;10.258;2023-07-30T00:27:49;10.00;;;8.53;;
11731;SDS011;5922;53.734;10.258;2023-07-30T00:33:21;8.37;;;7.57;;
11731;SDS011;5922;53.734;10.258;2023-07-30T00:35:50;8.27;;;6.83;;
11731;SDS011;5922;53.734;10.258;2023-07-30T00:38:19;8.50;;;7.07;;
11731;SDS011;5922;53.734;10.258;2023-07-30T00:40:46;8.87;;;6.73;;
11731;SDS011;5922;53.734;10.258;2023-07-30T00:43:13;9.43;;;6.80;;
11731;SDS011;5922;53.734;10.258;2023-07-30T00:45:42;8.13;;;5.90;;
11731;SDS011;5922;53.734;10.258;2023-07-30T00:48:10;8.87;;;5.17;;
11731;SDS011;5922;53.734;10.258;2023-07-30T00:53:09;6.77;;;5.30;;
11731;SDS011;5922;53.734;10.258;2023-07-30T00:55:37;7.43;;;5.30;;
11731;SDS011;5922;53.734;10.258;2023-07-30T00:58:05;6.07;;;4.97;;
11731;SDS011;5922;53.734;10.258;2023-07-30T01:00:32;7.23;;;4.90;;
11731;SDS011;5922;53.734;10.258;2023-07-30T01:02:59;6.67;;;5.17;;
11731;SDS011;5922;53.734;10.258;2023-07-30T01:05:27;6.87;;;5.10;;
11731;SDS011;5922;53.734;10.258;2023-07-30T01:07:54;5.03;;;4.63;;
11731;SDS011;5922;53.734;10.258;2023-07-30T01:10:27;6.93;;;4.70;;
11731;SDS011;5922;53.734;10.258;2023-07-30T01:12:57;5.97;;;4.70;;
11731;SDS011;5922;53.734;10.258;2023-07-30T01:15:25;6.50;;;4.70;;
11731;SDS011;5922;53.734;10.258;2023-07-30T01:17:52;5.00;;;4.50;;
11731;SDS011;5922;53.734;10.258;2023-07-30T01:20:20;6.33;;;4.70;;
11731;SDS011;5922;53.734;10.258;2023-07-30T01:22:52;6.67;;;4.50;;
11731;SDS011;5922;53.734;10.258;2023-07-30T01:25:21;5.97;;;4.33;;
11731;SDS011;5922;53.734;10.258;2023-07-30T01:27:52;4.67;;;4.00;;
11731;SDS011;5922;53.734;10.258;2023-07-30T01:30:22;4.10;;;3.67;;
11731;SDS011;5922;53.734;10.258;2023-07-30T01:32:52;3.77;;;3.40;;
11731;SDS011;5922;53.734;10.258;2023-07-30T01:35:20;4.27;;;3.70;;
11731;SDS011;5922;53.734;10.258;2023-07-30T01:37:48;3.97;;;3.57;;
11731;SDS011;5922;53.734;10.258;2023-07-30T01:40:30;5.23;;;3.47;;
11731;SDS011;5922;53.734;10.258;2023-07-30T01:42:57;5.03;;;3.23;;
11731;SDS011;5922;53.734;10.258;2023-07-30T01:45:24;5.10;;;3.00;;
11731;SDS011;5922;53.734;10.258;2023-07-30T01:47:51;5.93;;;3.40;;
11731;SDS011;5922;53.734;10.258;2023-07-30T01:50:22;4.77;;;3.30;;
11731;SDS011;5922;53.734;10.258;2023-07-30T01:52:49;4.20;;;3.40;;
11731;SDS011;5922;53.734;10.258;2023-07-30T01:55:27;5.87;;;3.53;;
11731;SDS011;5922;53.734;10.258;2023-07-30T01:57:56;3.70;;;3.40;;
11731;SDS011;5922;53.734;10.258;2023-07-30T02:03:46;3.57;;;3.03;;
11731;SDS011;5922;53.734;10.258;2023-07-30T02:06:13;5.97;;;3.30;;
11731;SDS011;5922;53.734;10.258;2023-07-30T02:08:40;5.37;;;3.00;;
11731;SDS011;5922;53.734;10.258;2023-07-30T02:11:08;3.57;;;3.20;;
11731;SDS011;5922;53.734;10.258;2023-07-30T02:13:36;4.83;;;3.27;;
11731;SDS011;5922;53.734;10.258;2023-07-30T02:16:04;3.60;;;3.30;;
11731;SDS011;5922;53.734;10.258;2023-07-30T02:18:31;3.07;;;2.80;;
11731;SDS011;5922;53.734;10.258;2023-07-30T02:20:59;3.57;;;3.00;;
11731;SDS011;5922;53.734;10.258;2023-07-30T02:23:26;3.30;;;2.90;;
11731;SDS011;5922;53.734;10.258;2023-07-30T02:25:53;4.60;;;3.03;;
11731;SDS011;5922;53.734;10.258;2023-07-30T02:28:21;6.47;;;3.67;;
11731;SDS011;5922;53.734;10.258;2023-07-30T02:30:49;3.50;;;3.20;;
11731;SDS011;5922;53.734;10.258;2023-07-30T02:33:17;3.87;;;3.37;;
11731;SDS011;5922;53.734;10.258;2023-07-30T02:35:44;5.07;;;3.30;;
11731;SDS011;5922;53.734;10.258;2023-07-30T02:38:21;4.90;;;3.33;;
11731;SDS011;5922;53.734;10.258;2023-07-30T02:40:51;3.83;;;3.43;;
11731;SDS011;5922;53.734;10.258;2023-07-30T02:43:18;3.53;;;3.20;;
11731;SDS011;5922;53.734;10.258;2023-07-30T02:45:46;4.70;;;3.63;;
11731;SDS011;5922;53.734;10.258;2023-07-30T02:48:15;5.37;;;3.60;;
11731;SDS011;5922;53.734;10.258;2023-07-30T02:50:42;6.87;;;3.33;;
11731;SDS011;5922;53.734;10.258;2023-07-30T02:53:10;5.30;;;3.80;;
11731;SDS011;5922;53.734;10.258;2023-07-30T02:55:37;6.50;;;3.50;;
11731;SDS011;5922;53.734;10.258;2023-07-30T02:58:04;4.63;;;3.60;;
11731;SDS011;5922;53.734;10.258;2023-07-30T03:00:31;5.23;;;3.80;;
11731;SDS011;5922;53.734;10.258;2023-07-30T03:02:58;7.87;;;3.60;;
11731;SDS011;5922;53.734;10.258;2023-07-30T03:05:27;7.13;;;3.73;;
11731;SDS011;5922;53.734;10.258;2023-07-30T03:07:54;6.37;;;3.73;;
11731;SDS011;5922;53.734;10.258;2023-07-30T03:10:21;3.87;;;3.47;;
11731;SDS011;5922;53.734;10.258;2023-07-30T03:12:49;5.17;;;4.27;;
11731;SDS011;5922;53.734;10.258;2023-07-30T03:15:16;4.23;;;3.83;;
11731;SDS011;5922;53.734;10.258;2023-07-30T03:17:43;5.67;;;4.30;;
11731;SDS011;5922;53.734;10.258;2023-07-30T03:20:11;4.73;;;3.80;;
11731;SDS011;5922;53.734;10.258;2023-07-30T03:22:39;5.70;;;4.40;;
11731;SDS011;5922;53.734;10.258;2023-07-30T03:25:07;5.57;;;4.03;;
11731;SDS011;5922;53.734;10.258;2023-07-30T03:27:35;6.87;;;4.60;;
11731;SDS011;5922;53.734;10.258;2023-07-30T03:30:02;5.40;;;4.33;;
11731;SDS011;5922;53.734;10.258;2023-07-30T03:32:29;5.43;;;4.50;;
11731;SDS011;5922;53.734;10.258;2023-07-30T03:34:56;4.93;;;4.43;;
11731;SDS011;5922;53.734;10.258;2023-07-30T03:37:24;6.27;;;4.40;;
11731;SDS011;5922;53.734;10.258;2023-07-30T03:39:52;5.77;;;5.20;;
11731;SDS011;5922;53.734;10.258;2023-07-30T03:42:20;5.27;;;4.77;;
11731;SDS011;5922;53.734;10.258;2023-07-30T03:44:47;7.57;;;4.90;;
11731;SDS011;5922;53.734;10.258;2023-07-30T03:47:14;7.67;;;4.80;;
11731;SDS011;5922;53.734;10.258;2023-07-30T03:49:41;5.53;;;5.03;;
11731;SDS011;5922;53.734;10.258;2023-07-30T03:52:08;6.10;;;5.50;;
11731;SDS011;5922;53.734;10.258;2023-07-30T03:54:36;7.03;;;5.30;;
11731;SDS011;5922;53.734;10.258;2023-07-30T03:57:04;9.00;;;5.10;;
11731;SDS011;5922;53.734;10.258;2023-07-30T03:59:32;5.77;;;5.27;;
11731;SDS011;5922;53.734;10.258;2023-07-30T04:01:59;6.03;;;4.83;;
11731;SDS011;5922;53.734;10.258;2023-07-30T04:04:26;9.27;;;5.67;;
11731;SDS011;5922;53.734;10.258;2023-07-30T04:06:53;7.67;;;5.57;;
11731;SDS011;5922;53.734;10.258;2023-07-30T04:09:23;5.90;;;5.40;;
11731;SDS011;5922;53.734;10.258;2023-07-30T04:11:50;6.80;;;6.17;;
11731;SDS011;5922;53.734;10.258;2023-07-30T04:14:19;6.13;;;5.50;;
11731;SDS011;5922;53.734;10.258;2023-07-30T04:16:46;6.80;;;5.73;;
11731;SDS011;5922;53.734;10.258;2023-07-30T04:19:14;9.43;;;5.60;;
11731;SDS011;5922;53.734;10.258;2023-07-30T04:21:41;6.60;;;6.00;;
11731;SDS011;5922;53.734;10.258;2023-07-30T04:24:11;7.00;;;6.20;;
11731;SDS011;5922;53.734;10.258;2023-07-30T04:26:39;7.17;;;6.03;;
11731;SDS011;5922;53.734;10.258;2023-07-30T04:29:06;7.30;;;5.90;;
11731;SDS011;5922;53.734;10.258;2023-07-30T04:31:36;7.87;;;6.23;;
11731;SDS011;5922;53.734;10.258;2023-07-30T04:34:04;6.97;;;6.30;;
11731;SDS011;5922;53.734;10.258;2023-07-30T04:36:45;7.47;;;6.00;;
11731;SDS011;5922;53.734;10.258;2023-07-30T04:39:12;7.10;;;6.33;;
11731;SDS011;5922;53.734;10.258;2023-07-30T04:41:39;8.87;;;6.23;;
11731;SDS011;5922;53.734;10.258;2023-07-30T04:44:06;6.67;;;5.87;;
11731;SDS011;5922;53.734;10.258;2023-07-30T04:46:33;10.07;;;6.33;;
11731;SDS011;5922;53.734;10.258;2023-07-30T04:49:02;8.43;;;6.30;;
11731;SDS011;5922;53.734;10.258;2023-07-30T04:51:30;8.23;;;6.17;;
11731;SDS011;5922;53.734;10.258;2023-07-30T04:53:57;6.73;;;6.07;;
11731;SDS011;5922;53.734;10.258;2023-07-30T04:56:24;8.40;;;6.40;;
11731;SDS011;5922;53.734;10.258;2023-07-30T04:58:52;7.50;;;6.07;;
11731;SDS011;5922;53.734;10.258;2023-07-30T05:01:19;6.87;;;6.07;;
11731;SDS011;5922;53.734;10.258;2023-07-30T05:03:46;12.13;;;7.00;;
11731;SDS011;5922;53.734;10.258;2023-07-30T05:06:15;7.33;;;6.63;;
11731;SDS011;5922;53.734;10.258;2023-07-30T05:08:42;8.13;;;6.67;;
11731;SDS011;5922;53.734;10.258;2023-07-30T05:11:09;6.93;;;6.23;;
11731;SDS011;5922;53.734;10.258;2023-07-30T05:13:36;6.93;;;6.17;;
11731;SDS011;5922;53.734;10.258;2023-07-30T05:16:04;8.53;;;6.03;;
11731;SDS011;5922;53.734;10.258;2023-07-30T05:18:31;9.30;;;6.17;;
11731;SDS011;5922;53.734;10.258;2023-07-30T05:20:58;8.87;;;6.13;;
11731;SDS011;5922;53.734;10.258;2023-07-30T05:23:27;8.30;;;6.43;;
11731;SDS011;5922;53.734;10.258;2023-07-30T05:25:54;9.30;;;6.23;;
11731;SDS011;5922;53.734;10.258;2023-07-30T05:28:21;7.10;;;5.90;;
11731;SDS011;5922;53.734;10.258;2023-07-30T05:30:48;8.17;;;6.23;;
11731;SDS011;5922;53.734;10.258;2023-07-30T05:33:16;6.27;;;5.60;;
11731;SDS011;5922;53.734;10.258;2023-07-30T05:35:43;6.97;;;6.13;;
11731;SDS011;5922;53.734;10.258;2023-07-30T05:38:10;8.67;;;5.57;;
11731;SDS011;5922;53.734;10.258;2023-07-30T05:40:39;9.80;;;5.53;;
11731;SDS011;5922;53.734;10.258;2023-07-30T05:43:06;10.43;;;6.27;;
11731;SDS011;5922;53.734;10.258;2023-07-30T05:45:33;8.73;;;5.63;;
11731;SDS011;5922;53.734;10.258;2023-07-30T05:48:01;9.03;;;6.00;;
11731;SDS011;5922;53.734;10.258;2023-07-30T05:50:28;9.27;;;5.43;;
11731;SDS011;5922;53.734;10.258;2023-07-30T05:52:55;7.93;;;5.47;;
11731;SDS011;5922;53.734;10.258;2023-07-30T05:55:23;11.40;;;6.03;;
11731;SDS011;5922;53.734;10.258;2023-07-30T05:57:51;8.03;;;5.37;;
11731;SDS011;5922;53.734;10.258;2023-07-30T06:00:20;5.87;;;4.83;;
11731;SDS011;5922;53.734;10.258;2023-07-30T06:02:49;8.77;;;5.30;;
11731;SDS011;5922;53.734;10.258;2023-07-30T06:05:16;10.57;;;5.17;;
11731;SDS011;5922;53.734;10.258;2023-07-30T06:07:43;6.50;;;5.00;;
11731;SDS011;5922;53.734;10.258;2023-07-30T06:10:11;8.37;;;5.17;;
11731;SDS011;5922;53.734;10.258;2023-07-30T06:12:38;8.43;;;5.07;;
11731;SDS011;5922;53.734;10.258;2023-07-30T06:15:08;8.77;;;5.10;;
11731;SDS011;5922;53.734;10.258;2023-07-30T06:17:35;10.73;;;5.30;;
11731;SDS011;5922;53.734;10.258;2023-07-30T06:20:02;7.47;;;5.03;;
11731;SDS011;5922;53.734;10.258;2023-07-30T06:22:30;9.07;;;5.07;;
11731;SDS011;5922;53.734;10.258;2023-07-30T06:24:58;7.40;;;4.73;;
11731;SDS011;5922;53.734;10.258;2023-07-30T06:27:25;12.03;;;5.37;;
11731;SDS011;5922;53.734;10.258;2023-07-30T06:29:52;10.17;;;4.57;;
11731;SDS011;5922;53.734;10.258;2023-07-30T06:32:21;8.60;;;5.37;;
11731;SDS011;5922;53.734;10.258;2023-07-30T06:34:49;8.53;;;4.73;;
11731;SDS011;5922;53.734;10.258;2023-07-30T06:37:17;10.07;;;4.43;;
11731;SDS011;5922;53.734;10.258;2023-07-30T06:39:44;10.03;;;5.47;;
11731;SDS011;5922;53.734;10.258;2023-07-30T06:42:11;8.03;;;4.57;;
11731;SDS011;5922;53.734;10.258;2023-07-30T06:44:39;12.23;;;4.70;;
11731;SDS011;5922;53.734;10.258;2023-07-30T06:47:06;11.43;;;4.83;;
11731;SDS011;5922;53.734;10.258;2023-07-30T06:49:36;11.13;;;5.20;;
11731;SDS011;5922;53.734;10.258;2023-07-30T06:52:04;11.00;;;5.60;;
11731;SDS011;5922;53.734;10.258;2023-07-30T06:54:31;10.03;;;5.67;;
11731;SDS011;5922;53.734;10.258;2023-07-30T06:57:02;10.77;;;5.10;;
11731;SDS011;5922;53.734;10.258;2023-07-30T06:59:37;12.27;;;6.07;;
11731;SDS011;5922;53.734;10.258;2023-07-30T07:02:05;13.00;;;5.90;;
11731;SDS011;5922;53.734;10.258;2023-07-30T07:04:32;10.83;;;5.80;;
11731;SDS011;5922;53.734;10.258;2023-07-30T07:07:04;11.23;;;5.27;;
11731;SDS011;5922;53.734;10.258;2023-07-30T07:09:35;10.60;;;5.90;;
11731;SDS011;5922;53.734;10.258;2023-07-30T07:12:03;13.30;;;6.30;;
11731;SDS011;5922;53.734;10.258;2023-07-30T07:14:32;18.67;;;6.20;;
11731;SDS011;5922;53.734;10.258;2023-07-30T07:16:59;14.20;;;5.90;;
11731;SDS011;5922;53.734;10.258;2023-07-30T07:19:26;14.50;;;6.20;;
11731;SDS011;5922;53.734;10.258;2023-07-30T07:21:54;15.30;;;5.70;;
11731;SDS011;5922;53.734;10.258;2023-07-30T07:24:22;13.10;;;5.47;;
11731;SDS011;5922;53.734;10.258;2023-07-30T07:26:53;13.87;;;5.47;;
11731;SDS011;5922;53.734;10.258;2023-07-30T07:29:24;15.83;;;5.93;;
11731;SDS011;5922;53.734;10.258;2023-07-30T07:31:51;9.30;;;5.07;;
11731;SDS011;5922;53.734;10.258;2023-07-30T07:34:30;11.53;;;5.67;;
11731;SDS011;5922;53.734;10.258;2023-07-30T07:37:01;8.37;;;5.10;;
11731;SDS011;5922;53.734;10.258;2023-07-30T07:39:36;11.00;;;5.17;;
11731;SDS011;5922;53.734;10.258;2023-07-30T07:42:14;10.43;;;5.43;;
11731;SDS011;5922;53.734;10.258;2023-07-30T07:44:55;8.00;;;4.77;;
11731;SDS011;5922;53.734;10.258;2023-07-30T07:47:22;9.87;;;5.70;;
11731;SDS011;5922;53.734;10.258;2023-07-30T07:49:55;11.77;;;5.00;;
11731;SDS011;5922;53.734;10.258;2023-07-30T07:55:04;11.50;;;5.07;;
11731;SDS011;5922;53.734;10.258;2023-07-30T07:57:31;11.73;;;5.37;;
11731;SDS011;5922;53.734;10.258;2023-07-30T07:59:58;15.43;;;5.60;;
11731;SDS011;5922;53.734;10.258;2023-07-30T08:02:27;15.60;;;6.13;;
11731;SDS011;5922;53.734;10.258;2023-07-30T08:04:59;10.37;;;5.63;;
11731;SDS011;5922;53.734;10.258;2023-07-30T08:07:31;11.60;;;6.10;;
11731;SDS011;5922;53.734;10.258;2023-07-30T08:09:59;13.83;;;6.57;;
11731;SDS011;5922;53.734;10.258;2023-07-30T08:12:30;13.20;;;6.30;;
11731;SDS011;5922;53.734;10.258;2023-07-30T08:15:04;15.13;;;6.27;;
11731;SDS011;5922;53.734;10.258;2023-07-30T08:17:32;10.27;;;6.00;;
11731;SDS011;5922;53.734;10.258;2023-07-30T08:19:59;11.67;;;5.97;;
11731;SDS011;5922;53.734;10.258;2023-07-30T08:22:29;12.93;;;5.87;;
11731;SDS011;5922;53.734;10.258;2023-07-30T08:24:59;11.57;;;5.50;;
11731;SDS011;5922;53.734;10.258;2023-07-30T08:27:31;11.97;;;6.30;;
11731;SDS011;5922;53.734;10.258;2023-07-30T08:29:58;15.70;;;5.77;;
11731;SDS011;5922;53.734;10.258;2023-07-30T08:32:30;12.10;;;5.67;;
11731;SDS011;5922;53.734;10.258;2023-07-30T08:35:02;14.10;;;5.47;;
11731;SDS011;5922;53.734;10.258;2023-07-30T08:37:35;12.00;;;5.60;;
11731;SDS011;5922;53.734;10.258;2023-07-30T08:40:03;11.53;;;5.23;;
11731;SDS011;5922;53.734;10.258;2023-07-30T08:42:32;10.90;;;5.13;;
11731;SDS011;5922;53.734;10.258;2023-07-30T08:45:00;9.77;;;4.30;;
11731;SDS011;5922;53.734;10.258;2023-07-30T08:47:31;12.87;;;4.77;;
11731;SDS011;5922;53.734;10.258;2023-07-30T08:50:00;11.97;;;4.43;;
11731;SDS011;5922;53.734;10.258;2023-07-30T08:55:41;15.33;;;5.10;;
11731;SDS011;5922;53.734;10.258;2023-07-30T08:58:13;8.67;;;3.73;;
11731;SDS011;5922;53.734;10.258;2023-07-30T09:00:42;8.03;;;3.60;;
11731;SDS011;5922;53.734;10.258;2023-07-30T09:03:17;12.50;;;4.07;;
11731;SDS011;5922;53.734;10.258;2023-07-30T09:05:51;6.60;;;3.30;;
11731;SDS011;5922;53.734;10.258;2023-07-30T09:08:21;13.60;;;4.13;;
11731;SDS011;5922;53.734;10.258;2023-07-30T09:11:08;9.90;;;4.23;;
11731;SDS011;5922;53.734;10.258;2023-07-30T09:13:43;14.17;;;3.70;;
11731;SDS011;5922;53.734;10.258;2023-07-30T09:16:23;10.47;;;4.00;;
11731;SDS011;5922;53.734;10.258;2023-07-30T09:18:53;12.33;;;3.67;;
11731;SDS011;5922;53.734;10.258;2023-07-30T09:21:32;8.43;;;4.10;;
11731;SDS011;5922;53.734;10.258;2023-07-30T09:24:01;8.30;;;3.93;;
11731;SDS011;5922;53.734;10.258;2023-07-30T09:26:31;6.33;;;3.57;;
11731;SDS011;5922;53.734;10.258;2023-07-30T09:29:08;6.93;;;3.53;;
11731;SDS011;5922;53.734;10.258;2023-07-30T09:31:46;7.97;;;4.10;;
11731;SDS011;5922;53.734;10.258;2023-07-30T09:34:17;8.57;;;3.63;;
11731;SDS011;5922;53.734;10.258;2023-07-30T09:36:45;9.93;;;4.00;;
11731;SDS011;5922;53.734;10.258;2023-07-30T09:39:15;11.67;;;4.17;;
11731;SDS011;5922;53.734;10.258;2023-07-30T09:41:43;8.13;;;3.40;;
11731;SDS011;5922;53.734;10.258;2023-07-30T09:44:12;8.73;;;3.00;;
11731;SDS011;5922;53.734;10.258;2023-07-30T09:46:43;7.70;;;2.70;;
11731;SDS011;5922;53.734;10.258;2023-07-30T09:49:10;9.40;;;3.00;;
11731;SDS011;5922;53.734;10.258;2023-07-30T09:51:38;11.10;;;3.37;;
11731;SDS011;5922;53.734;10.258;2023-07-30T09:54:06;9.73;;;3.63;;
11731;SDS011;5922;53.734;10.258;2023-07-30T09:56:33;11.53;;;3.37;;
11731;SDS011;5922;53.734;10.258;2023-07-30T09:59:00;6.90;;;2.90;;
11731;SDS011;5922;53.734;10.258;2023-07-30T10:01:29;8.00;;;3.00;;
11731;SDS011;5922;53.734;10.258;2023-07-30T10:03:57;9.67;;;3.07;;
11731;SDS011;5922;53.734;10.258;2023-07-30T10:06:25;12.20;;;3.40;;
11731;SDS011;5922;53.734;10.258;2023-07-30T10:08:54;9.83;;;3.07;;
11731;SDS011;5922;53.734;10.258;2023-07-30T10:11:23;7.63;;;3.43;;
11731;SDS011;5922;53.734;10.258;2023-07-30T10:13:51;11.37;;;3.23;;
11731;SDS011;5922;53.734;10.258;2023-07-30T10:16:24;7.50;;;3.03;;
11731;SDS011;5922;53.734;10.258;2023-07-30T10:18:56;7.13;;;2.73;;
11731;SDS011;5922;53.734;10.258;2023-07-30T10:21:26;11.33;;;3.07;;
11731;SDS011;5922;53.734;10.258;2023-07-30T10:23:58;10.40;;;3.53;;
11731;SDS011;5922;53.734;10.258;2023-07-30T10:26:26;7.40;;;2.80;;
11731;SDS011;5922;53.734;10.258;2023-07-30T10:31:39;8.57;;;3.27;;
11731;SDS011;5922;53.734;10.258;2023-07-30T10:34:08;9.47;;;3.53;;
11731;SDS011;5922;53.734;10.258;2023-07-30T10:36:42;8.40;;;3.50;;
11731;SDS011;5922;53.734;10.258;2023-07-30T10:39:14;9.10;;;3.10;;
11731;SDS011;5922;53.734;10.258;2023-07-30T10:41:49;9.53;;;2.97;;
11731;SDS011;5922;53.734;10.258;2023-07-30T10:44:23;8.43;;;2.80;;
11731;SDS011;5922;53.734;10.258;2023-07-30T10:46:50;7.47;;;3.13;;
11731;SDS011;5922;53.734;10.258;2023-07-30T10:49:19;8.83;;;3.13;;
11731;SDS011;5922;53.734;10.258;2023-07-30T10:51:47;7.07;;;3.10;;
11731;SDS011;5922;53.734;10.258;2023-07-30T10:54:14;8.33;;;3.20;;
11731;SDS011;5922;53.734;10.258;2023-07-30T10:56:42;10.80;;;3.17;;
11731;SDS011;5922;53.734;10.258;2023-07-30T10:59:15;8.70;;;3.43;;
11731;SDS011;5922;53.734;10.258;2023-07-30T11:01:43;5.90;;;3.43;;
11731;SDS011;5922;53.734;10.258;2023-07-30T11:04:11;6.73;;;3.23;;
11731;SDS011;5922;53.734;10.258;2023-07-30T11:06:44;8.87;;;3.60;;
11731;SDS011;5922;53.734;10.258;2023-07-30T11:09:17;9.57;;;3.37;;
11731;SDS011;5922;53.734;10.258;2023-07-30T11:11:45;9.67;;;3.63;;
11731;SDS011;5922;53.734;10.258;2023-07-30T11:14:14;10.27;;;3.70;;
11731;SDS011;5922;53.734;10.258;2023-07-30T11:16:46;9.70;;;3.83;;
11731;SDS011;5922;53.734;10.258;2023-07-30T11:19:14;8.50;;;3.60;;
11731;SDS011;5922;53.734;10.258;2023-07-30T11:21:48;8.03;;;3.00;;
11731;SDS011;5922;53.734;10.258;2023-07-30T11:24:15;12.63;;;3.80;;
11731;SDS011;5922;53.734;10.258;2023-07-30T11:26:56;5.63;;;3.20;;
11731;SDS011;5922;53.734;10.258;2023-07-30T11:29:24;7.27;;;2.77;;
11731;SDS011;5922;53.734;10.258;2023-07-30T11:31:51;7.73;;;2.87;;
11731;SDS011;5922;53.734;10.258;2023-07-30T11:34:18;8.03;;;3.30;;
11731;SDS011;5922;53.734;10.258;2023-07-30T11:36:47;5.93;;;2.70;;
11731;SDS011;5922;53.734;10.258;2023-07-30T11:39:14;4.47;;;2.50;;
11731;SDS011;5922;53.734;10.258;2023-07-30T11:41:42;8.73;;;2.57;;
11731;SDS011;5922;53.734;10.258;2023-07-30T11:44:19;9.23;;;3.10;;
11731;SDS011;5922;53.734;10.258;2023-07-30T11:46:55;5.07;;;2.63;;
11731;SDS011;5922;53.734;10.258;2023-07-30T11:49:23;6.20;;;2.50;;
11731;SDS011;5922;53.734;10.258;2023-07-30T11:51:51;7.60;;;2.50;;
11731;SDS011;5922;53.734;10.258;2023-07-30T11:54:30;4.97;;;2.13;;
11731;SDS011;5922;53.734;10.258;2023-07-30T11:57:06;5.67;;;2.33;;
11731;SDS011;5922;53.734;10.258;2023-07-30T11:59:36;5.93;;;2.20;;
11731;SDS011;5922;53.734;10.258;2023-07-30T12:02:04;7.20;;;2.57;;
11731;SDS011;5922;53.734;10.258;2023-07-30T12:04:42;6.07;;;2.47;;
11731;SDS011;5922;53.734;10.258;2023-07-30T12:07:12;4.03;;;2.10;;
11731;SDS011;5922;53.734;10.258;2023-07-30T12:09:50;5.70;;;2.23;;
11731;SDS011;5922;53.734;10.258;2023-07-30T12:12:18;6.63;;;2.10;;
11731;SDS011;5922;53.734;10.258;2023-07-30T12:14:54;4.70;;;2.00;;
11731;SDS011;5922;53.734;10.258;2023-07-30T12:17:21;4.00;;;2.13;;
11731;SDS011;5922;53.734;10.258;2023-07-30T12:19:50;6.87;;;2.00;;
11731;SDS011;5922;53.734;10.258;2023-07-30T12:22:19;6.17;;;2.27;;
11731;SDS011;5922;53.734;10.258;2023-07-30T12:24:46;5.73;;;2.00;;
11731;SDS011;5922;53.734;10.258;2023-07-30T12:27:14;6.63;;;2.50;;
11731;SDS011;5922;53.734;10.258;2023-07-30T12:29:41;4.40;;;2.03;;
11731;SDS011;5922;53.734;10.258;2023-07-30T12:32:11;5.67;;;1.97;;
11731;SDS011;5922;53.734;10.258;2023-07-30T12:34:40;5.77;;;2.43;;
11731;SDS011;5922;53.734;10.258;2023-07-30T12:37:08;6.50;;;2.10;;
11731;SDS011;5922;53.734;10.258;2023-07-30T12:39:37;7.70;;;2.57;;
11731;SDS011;5922;53.734;10.258;2023-07-30T12:42:07;4.10;;;1.90;;
11731;SDS011;5922;53.734;10.258;2023-07-30T12:44:35;6.93;;;2.10;;
11731;SDS011;5922;53.734;10.258;2023-07-30T12:47:02;2.87;;;1.87;;
11731;SDS011;5922;53.734;10.258;2023-07-30T12:49:30;6.00;;;2.10;;
11731;SDS011;5922;53.734;10.258;2023-07-30T12:52:02;6.83;;;2.23;;
11731;SDS011;5922;53.734;10.258;2023-07-30T12:54:29;8.00;;;1.97;;
11731;SDS011;5922;53.734;10.258;2023-07-30T12:57:02;8.93;;;2.63;;
11731;SDS011;5922;53.734;10.258;2023-07-30T12:59:30;4.00;;;2.10;;
11731;SDS011;5922;53.734;10.258;2023-07-30T13:02:00;5.57;;;2.40;;
11731;SDS011;5922;53.734;10.258;2023-07-30T13:07:17;7.03;;;2.20;;
11731;SDS011;5922;53.734;10.258;2023-07-30T13:12:16;5.70;;;2.63;;
11731;SDS011;5922;53.734;10.258;2023-07-30T13:14:43;6.50;;;1.80;;
11731;SDS011;5922;53.734;10.258;2023-07-30T13:17:11;5.00;;;2.00;;
11731;SDS011;5922;53.734;10.258;2023-07-30T13:19:43;6.20;;;2.70;;
11731;SDS011;5922;53.734;10.258;2023-07-30T13:22:13;4.00;;;2.07;;
11731;SDS011;5922;53.734;10.258;2023-07-30T13:24:54;6.03;;;2.03;;
11731;SDS011;5922;53.734;10.258;2023-07-30T13:27:29;4.73;;;2.50;;
11731;SDS011;5922;53.734;10.258;2023-07-30T13:29:59;6.23;;;2.17;;
11731;SDS011;5922;53.734;10.258;2023-07-30T13:32:29;5.70;;;2.30;;
11731;SDS011;5922;53.734;10.258;2023-07-30T13:35:01;5.93;;;2.70;;
11731;SDS011;5922;53.734;10.258;2023-07-30T13:37:33;6.43;;;2.60;;
11731;SDS011;5922;53.734;10.258;2023-07-30T13:40:00;5.90;;;2.53;;
11731;SDS011;5922;53.734;10.258;2023-07-30T13:42:29;4.83;;;1.77;;
11731;SDS011;5922;53.734;10.258;2023-07-30T13:44:56;4.73;;;1.97;;
11731;SDS011;5922;53.734;10.258;2023-07-30T13:47:25;5.77;;;2.03;;
11731;SDS011;5922;53.734;10.258;2023-07-30T13:49:58;3.43;;;1.67;;
11731;SDS011;5922;53.734;10.258;2023-07-30T13:53:14;3.93;;;1.67;;
11731;SDS011;5922;53.734;10.258;2023-07-30T13:55:34;2.90;;;1.77;;
11731;SDS011;5922;53.734;10.258;2023-07-30T13:58:03;3.80;;;1.90;;
11731;SDS011;5922;53.734;10.258;2023-07-30T14:00:30;3.43;;;1.43;;
11731;SDS011;5922;53.734;10.258;2023-07-30T14:02:57;3.13;;;1.77;;
11731;SDS011;5922;53.734;10.258;2023-07-30T14:05:29;2.53;;;1.50;;
11731;SDS011;5922;53.734;10.258;2023-07-30T14:07:57;2.67;;;1.40;;
11731;SDS011;5922;53.734;10.258;2023-07-30T14:10:24;3.17;;;1.60;;
11731;SDS011;5922;53.734;10.258;2023-07-30T14:12:54;5.13;;;1.40;;
11731;SDS011;5922;53.734;10.258;2023-07-30T14:15:27;3.03;;;1.60;;
11731;SDS011;5922;53.734;10.258;2023-07-30T14:17:54;5.27;;;1.60;;
11731;SDS011;5922;53.734;10.258;2023-07-30T14:20:30;1.77;;;1.60;;
11731;SDS011;5922;53.734;10.258;2023-07-30T14:22:57;4.27;;;1.67;;
11731;SDS011;5922;53.734;10.258;2023-07-30T14:25:26;3.63;;;1.90;;
11731;SDS011;5922;53.734;10.258;2023-07-30T14:27:53;3.33;;;1.83;;
11731;SDS011;5922;53.734;10.258;2023-07-30T14:30:23;2.37;;;1.60;;
11731;SDS011;5922;53.734;10.258;2023-07-30T14:32:54;4.13;;;1.73;;
11731;SDS011;5922;53.734;10.258;2023-07-30T14:35:27;2.40;;;1.40;;
11731;SDS011;5922;53.734;10.258;2023-07-30T14:37:54;3.90;;;1.70;;
11731;SDS011;5922;53.734;10.258;2023-07-30T14:40:24;2.43;;;1.47;;
11731;SDS011;5922;53.734;10.258;2023-07-30T14:42:57;2.87;;;1.80;;
11731;SDS011;5922;53.734;10.258;2023-07-30T14:45:25;3.40;;;1.73;;
11731;SDS011;5922;53.734;10.258;2023-07-30T14:47:56;3.97;;;1.90;;
11731;SDS011;5922;53.734;10.258;2023-07-30T14:50:23;3.43;;;1.70;;
11731;SDS011;5922;53.734;10.258;2023-07-30T14:52:50;3.70;;;1.60;;
11731;SDS011;5922;53.734;10.258;2023-07-30T14:55:17;4.13;;;1.50;;
11731;SDS011;5922;53.734;10.258;2023-07-30T14:57:52;1.97;;;1.40;;
11731;SDS011;5922;53.734;10.258;2023-07-30T15:00:22;2.70;;;1.50;;
11731;SDS011;5922;53.734;10.258;2023-07-30T15:02:51;3.53;;;1.50;;
11731;SDS011;5922;53.734;10.258;2023-07-30T15:05:22;1.97;;;1.30;;
11731;SDS011;5922;53.734;10.258;2023-07-30T15:08:13;3.33;;;1.50;;
11731;SDS011;5922;53.734;10.258;2023-07-30T15:10:40;3.33;;;1.50;;
11731;SDS011;5922;53.734;10.258;2023-07-30T15:13:10;3.70;;;1.57;;
11731;SDS011;5922;53.734;10.258;2023-07-30T15:15:44;3.20;;;1.70;;
11731;SDS011;5922;53.734;10.258;2023-07-30T15:18:11;2.77;;;1.53;;
11731;SDS011;5922;53.734;10.258;2023-07-30T15:20:43;4.30;;;1.97;;